sensor_id;sensor_type;location;lat;lon;timestamp;temperature;humidity
23550;DHT22;11953;49.010;8.608;2023-03-01T00:00:13;0.20;99.90
23550;DHT22;11953;49.010;8.608;2023-03-01T00:03:00;0.20;99.90
23550;DHT22;11953;49.010;8.608;2023-03-01T00:05:48;0.30;99.90
23550;DHT22;11953;49.010;8.608;2023-03-01T00:08:36;0.50;99.90
23550;DHT22;11953;49.010;8.608;2023-03-01T00:11:24;0.40;99.90
23550;DHT22;11953;49.010;8.608;2023-03-01T00:14:11;0.40;99.90
23550;DHT22;11953;49.010;8.608;2023-03-01T00:16:58;0.40;99.90
23550;DHT22;11953;49.010;8.608;2023-03-01T00:19:44;0.40;99.90
23550;DHT22;11953;49.010;8.608;2023-03-01T00:22:32;0.40;99.90
23550;DHT22;11953;49.010;8.608;2023-03-01T00:25:19;0.40;99.90
23550;DHT22;11953;49.010;8.608;2023-03-01T00:28:05;0.30;99.90
23550;DHT22;11953;49.010;8.608;2023-03-01T00:30:52;0.20;99.90
23550;DHT22;11953;49.010;8.608;2023-03-01T00:33:38;0.10;99.90
23550;DHT22;11953;49.010;8.608;2023-03-01T00:36:27;0.20;99.90
23550;DHT22;11953;49.010;8.608;2023-03-01T00:39:16;0.10;99.90
23550;DHT22;11953;49.010;8.608;2023-03-01T00:42:02;0.10;99.90
23550;DHT22;11953;49.010;8.608;2023-03-01T00:44:49;0.10;99.90
23550;DHT22;11953;49.010;8.608;2023-03-01T00:47:35;0.10;99.90
23550;DHT22;11953;49.010;8.608;2023-03-01T00:50:23;0.10;99.90
23550;DHT22;11953;49.010;8.608;2023-03-01T00:53:09;0.00;99.90
23550;DHT22;11953;49.010;8.608;2023-03-01T00:55:58;0.10;99.90
23550;DHT22;11953;49.010;8.608;2023-03-01T00:58:45;0.00;99.90
23550;DHT22;11953;49.010;8.608;2023-03-01T01:01:34;0.00;99.90
23550;DHT22;11953;49.010;8.608;2023-03-01T01:04:21;-0.10;99.90
23550;DHT22;11953;49.010;8.608;2023-03-01T01:07:08;-0.10;99.90
23550;DHT22;11953;49.010;8.608;2023-03-01T01:09:54;-0.10;99.90
23550;DHT22;11953;49.010;8.608;2023-03-01T01:12:44;-0.10;99.90
23550;DHT22;11953;49.010;8.608;2023-03-01T01:15:33;-0.10;99.90
23550;DHT22;11953;49.010;8.608;2023-03-01T01:18:20;-0.10;99.90
23550;DHT22;11953;49.010;8.608;2023-03-01T01:21:09;-0.10;99.90
23550;DHT22;11953;49.010;8.608;2023-03-01T01:23:56;-0.10;99.90
23550;DHT22;11953;49.010;8.608;2023-03-01T01:26:44;0.00;99.90
23550;DHT22;11953;49.010;8.608;2023-03-01T01:29:32;0.00;99.90
23550;DHT22;11953;49.010;8.608;2023-03-01T01:32:19;0.00;99.90
23550;DHT22;11953;49.010;8.608;2023-03-01T01:35:06;0.00;99.90
23550;DHT22;11953;49.010;8.608;2023-03-01T01:37:53;-0.10;99.90
23550;DHT22;11953;49.010;8.608;2023-03-01T01:40:43;-0.10;99.90
23550;DHT22;11953;49.010;8.608;2023-03-01T01:43:33;-0.10;99.90
23550;DHT22;11953;49.010;8.608;2023-03-01T01:46:27;-0.20;99.90
23550;DHT22;11953;49.010;8.608;2023-03-01T01:49:22;-0.20;99.90
23550;DHT22;11953;49.010;8.608;2023-03-01T01:52:13;-0.10;99.90
23550;DHT22;11953;49.010;8.608;2023-03-01T01:55:03;-0.20;99.90
23550;DHT22;11953;49.010;8.608;2023-03-01T01:57:54;-0.20;99.90
23550;DHT22;11953;49.010;8.608;2023-03-01T02:00:42;-0.30;99.90
23550;DHT22;11953;49.010;8.608;2023-03-01T02:03:31;-0.30;99.90
23550;DHT22;11953;49.010;8.608;2023-03-01T02:06:27;-0.30;99.90
23550;DHT22;11953;49.010;8.608;2023-03-01T02:09:19;-0.30;99.90
23550;DHT22;11953;49.010;8.608;2023-03-01T02:12:07;-0.40;99.90
23550;DHT22;11953;49.010;8.608;2023-03-01T02:14:53;-0.40;99.90
23550;DHT22;11953;49.010;8.608;2023-03-01T02:17:40;-0.30;99.90
23550;DHT22;11953;49.010;8.608;2023-03-01T02:20:33;-0.30;99.90
23550;DHT22;11953;49.010;8.608;2023-03-01T02:23:20;-0.30;99.90
23550;DHT22;11953;49.010;8.608;2023-03-01T02:26:14;-0.30;99.90
23550;DHT22;11953;49.010;8.608;2023-03-01T02:29:05;-0.30;99.90
23550;DHT22;11953;49.010;8.608;2023-03-01T02:31:54;-0.30;99.90
23550;DHT22;11953;49.010;8.608;2023-03-01T02:34:44;-0.30;99.90
23550;DHT22;11953;49.010;8.608;2023-03-01T02:37:30;-0.30;99.90
23550;DHT22;11953;49.010;8.608;2023-03-01T02:40:19;-0.30;99.90
23550;DHT22;11953;49.010;8.608;2023-03-01T02:43:09;-0.30;99.90
23550;DHT22;11953;49.010;8.608;2023-03-01T02:46:03;-0.30;99.90
23550;DHT22;11953;49.010;8.608;2023-03-01T02:48:52;-0.30;99.90
23550;DHT22;11953;49.010;8.608;2023-03-01T02:51:47;-0.40;99.90
23550;DHT22;11953;49.010;8.608;2023-03-01T02:54:40;-0.40;99.90
23550;DHT22;11953;49.010;8.608;2023-03-01T02:57:28;-0.40;99.90
23550;DHT22;11953;49.010;8.608;2023-03-01T03:00:19;-0.40;99.90
23550;DHT22;11953;49.010;8.608;2023-03-01T03:03:08;-0.40;99.90
23550;DHT22;11953;49.010;8.608;2023-03-01T03:05:56;-0.40;99.90
23550;DHT22;11953;49.010;8.608;2023-03-01T03:08:43;-0.30;99.90
23550;DHT22;11953;49.010;8.608;2023-03-01T03:11:30;-0.30;99.90
23550;DHT22;11953;49.010;8.608;2023-03-01T03:14:17;-0.30;99.90
23550;DHT22;11953;49.010;8.608;2023-03-01T03:17:05;-0.40;99.90
23550;DHT22;11953;49.010;8.608;2023-03-01T03:19:53;-0.40;99.90
23550;DHT22;11953;49.010;8.608;2023-03-01T03:22:40;-0.40;99.90
23550;DHT22;11953;49.010;8.608;2023-03-01T03:25:28;-0.40;99.90
23550;DHT22;11953;49.010;8.608;2023-03-01T03:28:15;-0.40;99.90
23550;DHT22;11953;49.010;8.608;2023-03-01T03:31:02;-0.30;99.90
23550;DHT22;11953;49.010;8.608;2023-03-01T03:33:49;-0.40;99.90
23550;DHT22;11953;49.010;8.608;2023-03-01T03:36:37;-0.40;99.90
23550;DHT22;11953;49.010;8.608;2023-03-01T03:39:24;-0.40;99.90
23550;DHT22;11953;49.010;8.608;2023-03-01T03:42:10;-0.50;99.90
23550;DHT22;11953;49.010;8.608;2023-03-01T03:44:57;-0.50;99.90
23550;DHT22;11953;49.010;8.608;2023-03-01T03:47:43;-0.50;99.90
23550;DHT22;11953;49.010;8.608;2023-03-01T03:50:31;-0.50;99.90
23550;DHT22;11953;49.010;8.608;2023-03-01T03:53:20;-0.50;99.90
23550;DHT22;11953;49.010;8.608;2023-03-01T03:56:07;-0.50;99.90
23550;DHT22;11953;49.010;8.608;2023-03-01T03:58:53;-0.50;99.90
23550;DHT22;11953;49.010;8.608;2023-03-01T04:01:40;-0.60;99.90
23550;DHT22;11953;49.010;8.608;2023-03-01T04:04:27;-0.60;99.90
23550;DHT22;11953;49.010;8.608;2023-03-01T04:07:14;-0.60;99.90
23550;DHT22;11953;49.010;8.608;2023-03-01T04:10:02;-0.60;99.90
23550;DHT22;11953;49.010;8.608;2023-03-01T04:12:48;-0.70;99.90
23550;DHT22;11953;49.010;8.608;2023-03-01T04:15:35;-0.80;99.90
23550;DHT22;11953;49.010;8.608;2023-03-01T04:18:23;-0.80;99.90
23550;DHT22;11953;49.010;8.608;2023-03-01T04:21:10;-0.80;99.90
23550;DHT22;11953;49.010;8.608;2023-03-01T04:23:57;-0.80;99.90
23550;DHT22;11953;49.010;8.608;2023-03-01T04:26:45;-0.80;99.90
23550;DHT22;11953;49.010;8.608;2023-03-01T04:29:31;-0.90;99.90
23550;DHT22;11953;49.010;8.608;2023-03-01T04:32:17;-0.90;99.90
23550;DHT22;11953;49.010;8.608;2023-03-01T04:35:05;-0.90;99.90
23550;DHT22;11953;49.010;8.608;2023-03-01T04:37:51;-1.00;99.90
23550;DHT22;11953;49.010;8.608;2023-03-01T04:40:38;-1.10;99.90
23550;DHT22;11953;49.010;8.608;2023-03-01T04:43:28;-1.10;99.90
23550;DHT22;11953;49.010;8.608;2023-03-01T04:46:18;-1.00;99.90
23550;DHT22;11953;49.010;8.608;2023-03-01T04:49:05;-1.00;99.90
23550;DHT22;11953;49.010;8.608;2023-03-01T04:51:51;-1.00;99.90
23550;DHT22;11953;49.010;8.608;2023-03-01T04:54:38;-1.00;99.90
23550;DHT22;11953;49.010;8.608;2023-03-01T04:57:25;-1.10;99.90
23550;DHT22;11953;49.010;8.608;2023-03-01T05:00:14;-1.10;99.90
23550;DHT22;11953;49.010;8.608;2023-03-01T05:03:07;-1.00;99.90
23550;DHT22;11953;49.010;8.608;2023-03-01T05:05:54;-1.00;99.90
23550;DHT22;11953;49.010;8.608;2023-03-01T05:08:45;-1.00;99.90
23550;DHT22;11953;49.010;8.608;2023-03-01T05:11:31;-1.00;99.90
23550;DHT22;11953;49.010;8.608;2023-03-01T05:14:21;-1.00;99.90
23550;DHT22;11953;49.010;8.608;2023-03-01T05:17:09;-1.00;99.90
23550;DHT22;11953;49.010;8.608;2023-03-01T05:19:56;-1.00;99.90
23550;DHT22;11953;49.010;8.608;2023-03-01T05:22:45;-1.10;99.90
23550;DHT22;11953;49.010;8.608;2023-03-01T05:25:33;-1.10;99.90
23550;DHT22;11953;49.010;8.608;2023-03-01T05:28:20;-1.20;99.90
23550;DHT22;11953;49.010;8.608;2023-03-01T05:31:07;-1.20;99.90
23550;DHT22;11953;49.010;8.608;2023-03-01T05:33:56;-1.20;99.90
23550;DHT22;11953;49.010;8.608;2023-03-01T05:36:43;-1.20;99.90
23550;DHT22;11953;49.010;8.608;2023-03-01T05:39:29;-1.30;99.90
23550;DHT22;11953;49.010;8.608;2023-03-01T05:42:17;-1.30;99.90
23550;DHT22;11953;49.010;8.608;2023-03-01T05:45:04;-1.20;99.90
23550;DHT22;11953;49.010;8.608;2023-03-01T05:47:55;-1.20;99.90
23550;DHT22;11953;49.010;8.608;2023-03-01T05:50:44;-1.20;99.90
23550;DHT22;11953;49.010;8.608;2023-03-01T05:53:31;-1.20;99.90
23550;DHT22;11953;49.010;8.608;2023-03-01T05:56:17;-1.10;99.90
23550;DHT22;11953;49.010;8.608;2023-03-01T05:59:04;-1.10;99.90
23550;DHT22;11953;49.010;8.608;2023-03-01T06:01:51;-1.20;99.90
23550;DHT22;11953;49.010;8.608;2023-03-01T06:04:37;-1.20;99.90
23550;DHT22;11953;49.010;8.608;2023-03-01T06:07:25;-1.20;99.90
23550;DHT22;11953;49.010;8.608;2023-03-01T06:10:13;-1.10;99.90
23550;DHT22;11953;49.010;8.608;2023-03-01T06:13:00;-1.10;99.90
23550;DHT22;11953;49.010;8.608;2023-03-01T06:15:46;-1.10;99.90
23550;DHT22;11953;49.010;8.608;2023-03-01T06:18:32;-1.10;99.90
23550;DHT22;11953;49.010;8.608;2023-03-01T06:21:19;-1.10;99.90
23550;DHT22;11953;49.010;8.608;2023-03-01T06:24:07;-1.10;99.90
23550;DHT22;11953;49.010;8.608;2023-03-01T06:26:54;-1.10;99.90
23550;DHT22;11953;49.010;8.608;2023-03-01T06:29:41;-1.10;99.90
23550;DHT22;11953;49.010;8.608;2023-03-01T06:32:27;-1.00;99.90
23550;DHT22;11953;49.010;8.608;2023-03-01T06:35:15;-1.00;99.90
23550;DHT22;11953;49.010;8.608;2023-03-01T06:38:04;-1.10;99.90
23550;DHT22;11953;49.010;8.608;2023-03-01T06:40:55;-1.00;99.90
23550;DHT22;11953;49.010;8.608;2023-03-01T06:43:42;-1.00;99.90
23550;DHT22;11953;49.010;8.608;2023-03-01T06:46:28;-0.90;99.90
23550;DHT22;11953;49.010;8.608;2023-03-01T06:49:16;-0.90;99.90
23550;DHT22;11953;49.010;8.608;2023-03-01T06:52:03;-0.90;99.90
23550;DHT22;11953;49.010;8.608;2023-03-01T06:54:50;-0.80;99.90
23550;DHT22;11953;49.010;8.608;2023-03-01T06:57:38;-0.80;99.90
23550;DHT22;11953;49.010;8.608;2023-03-01T07:00:26;-0.70;99.90
23550;DHT22;11953;49.010;8.608;2023-03-01T07:03:12;-0.60;99.90
23550;DHT22;11953;49.010;8.608;2023-03-01T07:05:59;-0.50;99.90
23550;DHT22;11953;49.010;8.608;2023-03-01T07:08:45;-0.40;99.90
23550;DHT22;11953;49.010;8.608;2023-03-01T07:11:32;-0.50;99.90
23550;DHT22;11953;49.010;8.608;2023-03-01T07:14:20;-0.40;99.90
23550;DHT22;11953;49.010;8.608;2023-03-01T07:17:09;-0.30;99.90
23550;DHT22;11953;49.010;8.608;2023-03-01T07:19:56;-0.20;99.90
23550;DHT22;11953;49.010;8.608;2023-03-01T07:22:43;0.00;99.90
23550;DHT22;11953;49.010;8.608;2023-03-01T07:25:30;0.30;99.90
23550;DHT22;11953;49.010;8.608;2023-03-01T07:28:17;0.60;99.90
23550;DHT22;11953;49.010;8.608;2023-03-01T07:31:06;0.80;99.90
23550;DHT22;11953;49.010;8.608;2023-03-01T07:33:53;1.00;99.90
23550;DHT22;11953;49.010;8.608;2023-03-01T07:36:40;1.20;99.90
23550;DHT22;11953;49.010;8.608;2023-03-01T07:39:28;1.80;99.90
23550;DHT22;11953;49.010;8.608;2023-03-01T07:42:15;2.10;99.90
23550;DHT22;11953;49.010;8.608;2023-03-01T07:45:03;2.30;99.90
23550;DHT22;11953;49.010;8.608;2023-03-01T07:47:52;2.40;99.90
23550;DHT22;11953;49.010;8.608;2023-03-01T07:50:39;2.40;99.90
23550;DHT22;11953;49.010;8.608;2023-03-01T07:53:26;2.80;99.90
23550;DHT22;11953;49.010;8.608;2023-03-01T07:56:13;2.80;99.90
23550;DHT22;11953;49.010;8.608;2023-03-01T07:59:01;3.20;99.90
23550;DHT22;11953;49.010;8.608;2023-03-01T08:01:48;3.70;99.90
23550;DHT22;11953;49.010;8.608;2023-03-01T08:04:37;4.00;99.90
23550;DHT22;11953;49.010;8.608;2023-03-01T08:07:23;4.30;99.90
23550;DHT22;11953;49.010;8.608;2023-03-01T08:10:11;4.00;99.90
23550;DHT22;11953;49.010;8.608;2023-03-01T08:12:58;3.70;99.90
23550;DHT22;11953;49.010;8.608;2023-03-01T08:15:44;3.70;99.90
23550;DHT22;11953;49.010;8.608;2023-03-01T08:18:31;4.10;99.90
23550;DHT22;11953;49.010;8.608;2023-03-01T08:21:19;4.10;99.90
23550;DHT22;11953;49.010;8.608;2023-03-01T08:24:06;4.00;99.90
23550;DHT22;11953;49.010;8.608;2023-03-01T08:26:55;3.90;99.90
23550;DHT22;11953;49.010;8.608;2023-03-01T08:29:42;4.00;99.90
23550;DHT22;11953;49.010;8.608;2023-03-01T08:32:29;4.40;99.90
23550;DHT22;11953;49.010;8.608;2023-03-01T08:35:15;4.80;99.90
23550;DHT22;11953;49.010;8.608;2023-03-01T08:38:03;4.50;99.90
23550;DHT22;11953;49.010;8.608;2023-03-01T08:40:50;4.80;99.90
23550;DHT22;11953;49.010;8.608;2023-03-01T08:43:37;4.90;99.90
23550;DHT22;11953;49.010;8.608;2023-03-01T08:46:25;5.20;99.90
23550;DHT22;11953;49.010;8.608;2023-03-01T08:49:13;5.20;99.90
23550;DHT22;11953;49.010;8.608;2023-03-01T08:52:02;4.90;99.90
23550;DHT22;11953;49.010;8.608;2023-03-01T08:54:50;4.80;99.90
23550;DHT22;11953;49.010;8.608;2023-03-01T08:57:37;4.90;99.90
23550;DHT22;11953;49.010;8.608;2023-03-01T09:00:23;5.00;99.90
23550;DHT22;11953;49.010;8.608;2023-03-01T09:03:10;5.00;99.90
23550;DHT22;11953;49.010;8.608;2023-03-01T09:06:00;4.70;99.90
23550;DHT22;11953;49.010;8.608;2023-03-01T09:08:48;4.70;99.90
23550;DHT22;11953;49.010;8.608;2023-03-01T09:11:36;5.10;99.90
23550;DHT22;11953;49.010;8.608;2023-03-01T09:14:23;5.20;99.90
23550;DHT22;11953;49.010;8.608;2023-03-01T09:17:10;5.50;99.90
23550;DHT22;11953;49.010;8.608;2023-03-01T09:19:57;6.00;99.90
23550;DHT22;11953;49.010;8.608;2023-03-01T09:22:45;5.80;99.90
23550;DHT22;11953;49.010;8.608;2023-03-01T09:25:32;5.90;99.90
23550;DHT22;11953;49.010;8.608;2023-03-01T09:28:21;6.10;99.90
23550;DHT22;11953;49.010;8.608;2023-03-01T09:31:16;6.20;99.90
23550;DHT22;11953;49.010;8.608;2023-03-01T09:34:03;6.20;99.90
23550;DHT22;11953;49.010;8.608;2023-03-01T09:36:50;6.00;99.90
23550;DHT22;11953;49.010;8.608;2023-03-01T09:39:37;6.20;99.90
23550;DHT22;11953;49.010;8.608;2023-03-01T09:42:24;6.20;99.90
23550;DHT22;11953;49.010;8.608;2023-03-01T09:45:22;6.20;99.90
23550;DHT22;11953;49.010;8.608;2023-03-01T09:48:15;5.80;99.90
23550;DHT22;11953;49.010;8.608;2023-03-01T09:51:04;5.90;99.90
23550;DHT22;11953;49.010;8.608;2023-03-01T09:53:53;6.30;99.90
23550;DHT22;11953;49.010;8.608;2023-03-01T09:56:49;6.30;99.90
23550;DHT22;11953;49.010;8.608;2023-03-01T09:59:56;6.50;99.90
23550;DHT22;11953;49.010;8.608;2023-03-01T10:02:54;6.80;99.90
23550;DHT22;11953;49.010;8.608;2023-03-01T10:05:53;7.20;99.90
23550;DHT22;11953;49.010;8.608;2023-03-01T10:08:48;7.40;99.90
23550;DHT22;11953;49.010;8.608;2023-03-01T10:11:38;7.40;99.80
23550;DHT22;11953;49.010;8.608;2023-03-01T10:14:33;7.40;99.30
23550;DHT22;11953;49.010;8.608;2023-03-01T10:17:27;7.00;99.60
23550;DHT22;11953;49.010;8.608;2023-03-01T10:20:20;7.00;99.80
23550;DHT22;11953;49.010;8.608;2023-03-01T10:23:08;7.20;99.70
23550;DHT22;11953;49.010;8.608;2023-03-01T10:26:09;7.40;99.80
23550;DHT22;11953;49.010;8.608;2023-03-01T10:29:02;7.20;99.40
23550;DHT22;11953;49.010;8.608;2023-03-01T10:31:51;7.10;99.50
23550;DHT22;11953;49.010;8.608;2023-03-01T10:34:39;7.20;99.30
23550;DHT22;11953;49.010;8.608;2023-03-01T10:37:26;7.30;99.20
23550;DHT22;11953;49.010;8.608;2023-03-01T10:40:14;6.00;99.90
23550;DHT22;11953;49.010;8.608;2023-03-01T10:43:02;6.50;99.90
23550;DHT22;11953;49.010;8.608;2023-03-01T10:45:50;6.60;99.90
23550;DHT22;11953;49.010;8.608;2023-03-01T10:48:36;6.60;99.90
23550;DHT22;11953;49.010;8.608;2023-03-01T10:51:23;6.90;99.90
23550;DHT22;11953;49.010;8.608;2023-03-01T10:54:18;6.90;99.90
23550;DHT22;11953;49.010;8.608;2023-03-01T10:57:09;6.90;99.90
23550;DHT22;11953;49.010;8.608;2023-03-01T11:00:16;7.10;99.50
23550;DHT22;11953;49.010;8.608;2023-03-01T11:03:11;6.90;99.90
23550;DHT22;11953;49.010;8.608;2023-03-01T11:06:02;7.20;99.90
23550;DHT22;11953;49.010;8.608;2023-03-01T11:08:49;7.50;99.50
23550;DHT22;11953;49.010;8.608;2023-03-01T11:11:38;7.10;99.00
23550;DHT22;11953;49.010;8.608;2023-03-01T11:14:26;7.20;99.50
23550;DHT22;11953;49.010;8.608;2023-03-01T11:17:17;7.40;99.20
23550;DHT22;11953;49.010;8.608;2023-03-01T11:20:15;7.70;99.00
23550;DHT22;11953;49.010;8.608;2023-03-01T11:23:08;7.90;98.90
23550;DHT22;11953;49.010;8.608;2023-03-01T11:26:01;7.60;98.70
23550;DHT22;11953;49.010;8.608;2023-03-01T11:28:53;7.60;98.60
23550;DHT22;11953;49.010;8.608;2023-03-01T11:31:42;8.00;98.20
23550;DHT22;11953;49.010;8.608;2023-03-01T11:34:45;7.80;98.10
23550;DHT22;11953;49.010;8.608;2023-03-01T11:37:37;7.80;98.40
23550;DHT22;11953;49.010;8.608;2023-03-01T11:40:28;7.70;98.50
23550;DHT22;11953;49.010;8.608;2023-03-01T11:43:22;7.90;98.50
23550;DHT22;11953;49.010;8.608;2023-03-01T11:49:43;7.80;98.30
23550;DHT22;11953;49.010;8.608;2023-03-01T11:52:41;7.50;98.40
23550;DHT22;11953;49.010;8.608;2023-03-01T11:55:48;7.40;98.50
23550;DHT22;11953;49.010;8.608;2023-03-01T12:01:59;8.00;98.40
23550;DHT22;11953;49.010;8.608;2023-03-01T12:05:05;8.10;97.80
23550;DHT22;11953;49.010;8.608;2023-03-01T12:08:04;8.30;98.20
23550;DHT22;11953;49.010;8.608;2023-03-01T12:10:56;8.30;97.90
23550;DHT22;11953;49.010;8.608;2023-03-01T12:14:09;8.80;97.50
23550;DHT22;11953;49.010;8.608;2023-03-01T12:17:22;7.90;97.80
23550;DHT22;11953;49.010;8.608;2023-03-01T12:20:22;7.90;98.10
23550;DHT22;11953;49.010;8.608;2023-03-01T12:23:25;8.00;98.30
23550;DHT22;11953;49.010;8.608;2023-03-01T12:26:25;7.60;98.10
23550;DHT22;11953;49.010;8.608;2023-03-01T12:29:25;7.90;98.20
23550;DHT22;11953;49.010;8.608;2023-03-01T12:32:34;7.90;97.70
23550;DHT22;11953;49.010;8.608;2023-03-01T12:35:44;7.70;98.10
23550;DHT22;11953;49.010;8.608;2023-03-01T12:38:41;7.50;98.40
23550;DHT22;11953;49.010;8.608;2023-03-01T12:41:39;7.70;98.60
23550;DHT22;11953;49.010;8.608;2023-03-01T12:44:55;7.70;98.40
23550;DHT22;11953;49.010;8.608;2023-03-01T12:47:57;8.00;98.30
23550;DHT22;11953;49.010;8.608;2023-03-01T12:50:48;8.00;98.10
23550;DHT22;11953;49.010;8.608;2023-03-01T12:53:40;8.00;98.30
23550;DHT22;11953;49.010;8.608;2023-03-01T12:56:30;7.90;97.80
23550;DHT22;11953;49.010;8.608;2023-03-01T12:59:22;7.80;98.20
23550;DHT22;11953;49.010;8.608;2023-03-01T13:02:15;7.50;98.10
23550;DHT22;11953;49.010;8.608;2023-03-01T13:05:23;7.60;98.60
23550;DHT22;11953;49.010;8.608;2023-03-01T13:08:16;7.90;98.10
23550;DHT22;11953;49.010;8.608;2023-03-01T13:11:15;7.90;98.10
23550;DHT22;11953;49.010;8.608;2023-03-01T13:14:36;7.60;98.10
23550;DHT22;11953;49.010;8.608;2023-03-01T13:17:39;7.80;98.30
23550;DHT22;11953;49.010;8.608;2023-03-01T13:20:32;7.80;98.10
23550;DHT22;11953;49.010;8.608;2023-03-01T13:23:27;7.90;98.20
23550;DHT22;11953;49.010;8.608;2023-03-01T13:26:16;7.90;97.90
23550;DHT22;11953;49.010;8.608;2023-03-01T13:29:03;7.70;98.10
23550;DHT22;11953;49.010;8.608;2023-03-01T13:31:59;7.70;98.20
23550;DHT22;11953;49.010;8.608;2023-03-01T13:34:52;7.70;98.10
23550;DHT22;11953;49.010;8.608;2023-03-01T13:37:42;7.70;98.20
23550;DHT22;11953;49.010;8.608;2023-03-01T13:40:58;7.60;98.30
23550;DHT22;11953;49.010;8.608;2023-03-01T13:43:46;7.50;98.40
23550;DHT22;11953;49.010;8.608;2023-03-01T13:46:34;7.40;98.60
23550;DHT22;11953;49.010;8.608;2023-03-01T13:49:25;7.50;99.00
23550;DHT22;11953;49.010;8.608;2023-03-01T13:52:35;7.40;98.70
23550;DHT22;11953;49.010;8.608;2023-03-01T13:55:29;7.40;98.70
23550;DHT22;11953;49.010;8.608;2023-03-01T13:58:23;7.50;98.90
23550;DHT22;11953;49.010;8.608;2023-03-01T14:01:22;7.40;98.80
23550;DHT22;11953;49.010;8.608;2023-03-01T14:04:20;7.40;98.90
23550;DHT22;11953;49.010;8.608;2023-03-01T14:07:11;7.50;98.60
23550;DHT22;11953;49.010;8.608;2023-03-01T14:10:01;7.50;98.60
23550;DHT22;11953;49.010;8.608;2023-03-01T14:12:52;7.50;98.70
23550;DHT22;11953;49.010;8.608;2023-03-01T14:15:55;7.40;98.70
23550;DHT22;11953;49.010;8.608;2023-03-01T14:18:52;7.50;98.70
23550;DHT22;11953;49.010;8.608;2023-03-01T14:21:42;7.50;99.20
23550;DHT22;11953;49.010;8.608;2023-03-01T14:24:31;7.60;98.60
23550;DHT22;11953;49.010;8.608;2023-03-01T14:27:19;7.50;98.90
23550;DHT22;11953;49.010;8.608;2023-03-01T14:30:15;7.50;99.10
23550;DHT22;11953;49.010;8.608;2023-03-01T14:33:06;7.60;99.10
23550;DHT22;11953;49.010;8.608;2023-03-01T14:36:05;7.60;98.70
23550;DHT22;11953;49.010;8.608;2023-03-01T14:38:52;7.50;99.30
23550;DHT22;11953;49.010;8.608;2023-03-01T14:41:39;7.60;99.00
23550;DHT22;11953;49.010;8.608;2023-03-01T14:44:25;7.70;99.50
23550;DHT22;11953;49.010;8.608;2023-03-01T14:47:16;7.60;98.70
23550;DHT22;11953;49.010;8.608;2023-03-01T14:50:09;7.50;98.60
23550;DHT22;11953;49.010;8.608;2023-03-01T14:52:58;7.40;98.90
23550;DHT22;11953;49.010;8.608;2023-03-01T14:55:48;7.30;99.00
23550;DHT22;11953;49.010;8.608;2023-03-01T14:58:36;7.30;99.00
23550;DHT22;11953;49.010;8.608;2023-03-01T15:01:23;7.20;99.00
23550;DHT22;11953;49.010;8.608;2023-03-01T15:04:13;7.20;99.10
23550;DHT22;11953;49.010;8.608;2023-03-01T15:07:00;7.20;99.00
23550;DHT22;11953;49.010;8.608;2023-03-01T15:09:50;7.20;99.10
23550;DHT22;11953;49.010;8.608;2023-03-01T15:12:39;7.10;99.00
23550;DHT22;11953;49.010;8.608;2023-03-01T15:15:33;7.10;99.10
23550;DHT22;11953;49.010;8.608;2023-03-01T15:18:21;7.10;99.20
23550;DHT22;11953;49.010;8.608;2023-03-01T15:21:16;7.20;99.30
23550;DHT22;11953;49.010;8.608;2023-03-01T15:24:06;7.10;99.40
23550;DHT22;11953;49.010;8.608;2023-03-01T15:27:03;7.20;99.50
23550;DHT22;11953;49.010;8.608;2023-03-01T15:29:54;7.10;99.00
23550;DHT22;11953;49.010;8.608;2023-03-01T15:32:41;7.10;99.10
23550;DHT22;11953;49.010;8.608;2023-03-01T15:35:41;7.20;99.30
23550;DHT22;11953;49.010;8.608;2023-03-01T15:38:49;7.40;99.30
23550;DHT22;11953;49.010;8.608;2023-03-01T15:41:46;7.50;98.70
23550;DHT22;11953;49.010;8.608;2023-03-01T15:44:35;7.60;98.80
23550;DHT22;11953;49.010;8.608;2023-03-01T15:47:30;7.60;98.70
23550;DHT22;11953;49.010;8.608;2023-03-01T15:50:20;7.50;98.70
23550;DHT22;11953;49.010;8.608;2023-03-01T15:53:11;7.40;98.60
23550;DHT22;11953;49.010;8.608;2023-03-01T15:56:01;7.20;98.80
23550;DHT22;11953;49.010;8.608;2023-03-01T15:58:48;7.10;98.80
23550;DHT22;11953;49.010;8.608;2023-03-01T16:01:34;7.00;98.80
23550;DHT22;11953;49.010;8.608;2023-03-01T16:04:21;7.00;99.10
23550;DHT22;11953;49.010;8.608;2023-03-01T16:07:09;6.90;99.10
23550;DHT22;11953;49.010;8.608;2023-03-01T16:09:56;6.90;99.20
23550;DHT22;11953;49.010;8.608;2023-03-01T16:12:44;6.90;99.20
23550;DHT22;11953;49.010;8.608;2023-03-01T16:15:33;6.80;99.10
23550;DHT22;11953;49.010;8.608;2023-03-01T16:18:21;6.80;99.30
23550;DHT22;11953;49.010;8.608;2023-03-01T16:21:12;6.80;99.30
23550;DHT22;11953;49.010;8.608;2023-03-01T16:24:00;6.80;99.40
23550;DHT22;11953;49.010;8.608;2023-03-01T16:26:47;6.80;99.70
23550;DHT22;11953;49.010;8.608;2023-03-01T16:29:35;6.70;99.40
23550;DHT22;11953;49.010;8.608;2023-03-01T16:32:22;6.70;99.30
23550;DHT22;11953;49.010;8.608;2023-03-01T16:35:11;6.70;99.40
23550;DHT22;11953;49.010;8.608;2023-03-01T16:37:59;6.70;99.40
23550;DHT22;11953;49.010;8.608;2023-03-01T16:40:48;6.60;99.60
23550;DHT22;11953;49.010;8.608;2023-03-01T16:43:35;6.60;99.50
23550;DHT22;11953;49.010;8.608;2023-03-01T16:46:25;6.60;99.60
23550;DHT22;11953;49.010;8.608;2023-03-01T16:49:11;6.50;99.70
23550;DHT22;11953;49.010;8.608;2023-03-01T16:51:58;6.50;99.70
23550;DHT22;11953;49.010;8.608;2023-03-01T16:54:45;6.50;99.80
23550;DHT22;11953;49.010;8.608;2023-03-01T16:57:34;6.50;99.90
23550;DHT22;11953;49.010;8.608;2023-03-01T17:00:21;6.50;99.90
23550;DHT22;11953;49.010;8.608;2023-03-01T17:03:09;6.40;99.90
23550;DHT22;11953;49.010;8.608;2023-03-01T17:05:56;6.40;99.90
23550;DHT22;11953;49.010;8.608;2023-03-01T17:08:42;6.40;99.90
23550;DHT22;11953;49.010;8.608;2023-03-01T17:11:29;6.40;99.90
23550;DHT22;11953;49.010;8.608;2023-03-01T17:14:16;6.40;99.90
23550;DHT22;11953;49.010;8.608;2023-03-01T17:17:03;6.30;99.90
23550;DHT22;11953;49.010;8.608;2023-03-01T17:19:50;6.30;99.90
23550;DHT22;11953;49.010;8.608;2023-03-01T17:22:37;6.20;99.90
23550;DHT22;11953;49.010;8.608;2023-03-01T17:25:23;6.30;99.90
23550;DHT22;11953;49.010;8.608;2023-03-01T17:28:11;6.20;99.90
23550;DHT22;11953;49.010;8.608;2023-03-01T17:30:58;6.20;99.90
23550;DHT22;11953;49.010;8.608;2023-03-01T17:33:45;6.20;99.90
23550;DHT22;11953;49.010;8.608;2023-03-01T17:36:33;6.20;99.90
23550;DHT22;11953;49.010;8.608;2023-03-01T17:39:28;6.20;99.90
23550;DHT22;11953;49.010;8.608;2023-03-01T17:42:20;6.10;99.90
23550;DHT22;11953;49.010;8.608;2023-03-01T17:45:07;6.00;99.90
23550;DHT22;11953;49.010;8.608;2023-03-01T17:47:54;6.00;99.90
23550;DHT22;11953;49.010;8.608;2023-03-01T17:50:41;6.00;99.90
23550;DHT22;11953;49.010;8.608;2023-03-01T17:53:29;5.90;99.90
23550;DHT22;11953;49.010;8.608;2023-03-01T17:56:15;5.80;99.90
23550;DHT22;11953;49.010;8.608;2023-03-01T17:59:03;5.80;99.90
23550;DHT22;11953;49.010;8.608;2023-03-01T18:01:49;5.80;99.90
23550;DHT22;11953;49.010;8.608;2023-03-01T18:04:37;5.80;99.90
23550;DHT22;11953;49.010;8.608;2023-03-01T18:07:25;5.80;99.90
23550;DHT22;11953;49.010;8.608;2023-03-01T18:10:13;5.70;99.90